createdAt,value
2016-09-26T00:00:35.240Z,0
2016-09-26T00:01:34.919Z,0
2016-09-26T00:02:35.212Z,0
2016-09-26T00:03:35.187Z,0
2016-09-26T00:04:35.160Z,0
2016-09-26T00:05:35.162Z,0
2016-09-26T00:06:35.137Z,0
2016-09-26T00:07:34.829Z,0
2016-09-26T00:08:35.120Z,0
2016-09-26T00:09:35.103Z,0
2016-09-26T00:10:35.080Z,0
2016-09-26T00:11:35.054Z,0
2016-09-26T00:12:35.048Z,0
2016-09-26T00:13:35.029Z,0
2016-09-26T00:14:35.013Z,0
2016-09-26T00:15:34.712Z,0
2016-09-26T00:16:34.977Z,0
2016-09-26T00:17:34.663Z,0
2016-09-26T00:18:34.946Z,0
2016-09-26T00:19:34.923Z,0
2016-09-26T00:20:34.924Z,0
2016-09-26T00:21:34.895Z,0
2016-09-26T00:22:34.576Z,0
2016-09-26T00:23:34.866Z,0
2016-09-26T00:24:34.845Z,0
2016-09-26T00:25:34.528Z,0
2016-09-26T00:26:34.817Z,0
2016-09-26T00:27:34.797Z,0
2016-09-26T00:28:34.782Z,0
2016-09-26T00:29:34.769Z,0
2016-09-26T00:30:34.760Z,0
2016-09-26T00:31:34.737Z,0
2016-09-26T00:32:34.729Z,0
2016-09-26T00:33:34.704Z,0
2016-09-26T00:34:34.697Z,0
2016-09-26T00:35:34.666Z,0
2016-09-26T00:36:34.666Z,0
2016-09-26T00:37:34.659Z,0
2016-09-26T00:38:34.619Z,0
2016-09-26T00:39:34.603Z,0
2016-09-26T00:40:34.588Z,0
2016-09-26T00:41:34.577Z,0
2016-09-26T00:42:34.561Z,0
2016-09-26T00:43:34.231Z,0
2016-09-26T00:44:34.525Z,0
2016-09-26T00:45:34.605Z,0
2016-09-26T00:46:34.492Z,0
2016-09-26T00:47:34.472Z,0
2016-09-26T00:48:34.461Z,0
2016-09-26T00:49:34.457Z,0
2016-09-26T00:50:34.453Z,0
2016-09-26T00:51:34.410Z,0
2016-09-26T00:52:34.389Z,0
2016-09-26T00:53:34.080Z,0
2016-09-26T00:54:34.372Z,0
2016-09-26T00:55:34.345Z,0
2016-09-26T00:56:34.327Z,0
2016-09-26T00:57:34.308Z,0
2016-09-26T00:58:34.302Z,0
2016-09-26T00:59:34.290Z,0
2016-09-26T01:00:34.270Z,0
2016-09-26T01:01:34.252Z,0
2016-09-26T01:02:34.245Z,0
2016-09-26T01:03:34.222Z,0
2016-09-26T01:04:34.202Z,0
2016-09-26T01:05:34.179Z,0
2016-09-26T01:06:34.174Z,0
2016-09-26T01:07:33.855Z,0
2016-09-26T01:08:34.134Z,0
2016-09-26T01:09:33.822Z,0
2016-09-26T01:10:34.108Z,0
2016-09-26T01:11:34.100Z,0
2016-09-26T01:12:34.069Z,0
2016-09-26T01:13:33.752Z,0
2016-09-26T01:14:33.739Z,0
2016-09-26T01:15:34.026Z,0
2016-09-26T01:16:34.009Z,0
2016-09-26T01:17:33.994Z,0
2016-09-26T01:18:33.981Z,0
2016-09-26T01:19:33.955Z,0
2016-09-26T01:20:33.954Z,0
2016-09-26T01:21:33.937Z,0
2016-09-26T01:22:33.911Z,0
2016-09-26T01:23:33.900Z,0
2016-09-26T01:24:33.875Z,0
2016-09-26T01:25:33.864Z,0
2016-09-26T01:26:33.846Z,0
2016-09-26T01:27:33.827Z,0
2016-09-26T01:28:33.812Z,0
2016-09-26T01:29:33.803Z,0
2016-09-26T01:30:33.788Z,0
2016-09-26T01:31:33.767Z,0
2016-09-26T01:32:33.143Z,0
2016-09-26T01:33:33.732Z,0
2016-09-26T01:34:33.732Z,0
2016-09-26T01:35:33.695Z,0
2016-09-26T01:36:33.683Z,0
2016-09-26T01:37:33.676Z,0
2016-09-26T01:38:33.654Z,0
2016-09-26T01:39:33.637Z,0
2016-09-26T01:40:33.625Z,0
2016-09-26T01:41:33.599Z,0
2016-09-26T01:42:33.594Z,0
2016-09-26T01:43:33.576Z,0
2016-09-26T01:44:33.566Z,0
2016-09-26T01:45:33.538Z,0
2016-09-26T01:46:33.532Z,0
2016-09-26T01:47:33.510Z,0
2016-09-26T01:48:33.489Z,0
2016-09-26T01:49:33.478Z,0
2016-09-26T01:50:33.158Z,0
2016-09-26T01:51:33.439Z,0
2016-09-26T01:52:33.433Z,0
2016-09-26T01:53:33.410Z,0
2016-09-26T01:54:33.392Z,0
2016-09-26T01:55:33.372Z,0
2016-09-26T01:56:33.359Z,0
2016-09-26T01:57:33.042Z,0
2016-09-26T01:58:33.327Z,0
2016-09-26T01:59:33.314Z,0
2016-09-26T02:00:33.299Z,0
2016-09-26T02:01:33.279Z,0
2016-09-26T02:02:32.961Z,0
2016-09-26T02:03:32.941Z,0
2016-09-26T02:04:33.235Z,0
2016-09-26T02:05:32.918Z,0
2016-09-26T02:06:32.899Z,0
2016-09-26T02:07:33.198Z,0
2016-09-26T02:08:33.177Z,0
2016-09-26T02:09:33.156Z,0
2016-09-26T02:10:33.134Z,0
2016-09-26T02:11:33.118Z,0
2016-09-26T02:12:33.105Z,0
2016-09-26T02:13:33.087Z,0
2016-09-26T02:14:33.077Z,0
2016-09-26T02:15:33.055Z,0
2016-09-26T02:16:33.034Z,0
2016-09-26T02:17:33.024Z,0
2016-09-26T02:18:33.017Z,0
2016-09-26T02:19:32.683Z,0
2016-09-26T02:20:32.963Z,0
2016-09-26T02:21:32.956Z,0
2016-09-26T02:22:32.940Z,0
2016-09-26T02:23:32.617Z,0
2016-09-26T02:24:32.600Z,0
2016-09-26T02:25:32.593Z,0
2016-09-26T02:26:32.574Z,0
2016-09-26T02:27:32.559Z,0
2016-09-26T02:28:32.842Z,0
2016-09-26T02:29:32.830Z,0
2016-09-26T02:30:32.805Z,0
2016-09-26T02:31:32.791Z,0
2016-09-26T02:32:32.779Z,0
2016-09-26T02:33:32.762Z,0
2016-09-26T02:34:32.740Z,0
2016-09-26T02:35:32.735Z,0
2016-09-26T02:36:32.708Z,0
2016-09-26T02:37:32.691Z,0
2016-09-26T02:38:32.682Z,0
2016-09-26T02:39:32.670Z,0
2016-09-26T02:40:32.651Z,0
2016-09-26T02:41:32.634Z,0
2016-09-26T02:42:32.307Z,0
2016-09-26T02:43:32.603Z,0
2016-09-26T02:44:32.582Z,0
2016-09-26T02:45:32.263Z,0
2016-09-26T02:46:32.546Z,0
2016-09-26T02:47:32.531Z,0
2016-09-26T02:48:32.510Z,0
2016-09-26T02:49:32.493Z,0
2016-09-26T02:50:32.481Z,0
2016-09-26T02:51:32.480Z,0
2016-09-26T02:52:32.449Z,0
2016-09-26T02:53:32.443Z,0
2016-09-26T02:54:32.415Z,0
2016-09-26T02:55:32.404Z,0
2016-09-26T02:56:32.084Z,0
2016-09-26T02:57:32.067Z,0
2016-09-26T02:58:32.349Z,0
2016-09-26T02:59:32.344Z,0
2016-09-26T03:00:32.023Z,0
2016-09-26T03:01:32.304Z,0
2016-09-26T03:02:32.293Z,0
2016-09-26T03:03:31.970Z,0
2016-09-26T03:04:31.651Z,0
2016-09-26T03:05:32.234Z,0
2016-09-26T03:06:32.223Z,0
2016-09-26T03:07:32.212Z,0
2016-09-26T03:08:31.926Z,0
2016-09-26T03:09:31.892Z,0
2016-09-26T03:10:31.860Z,0
2016-09-26T03:11:32.141Z,0
2016-09-26T03:12:32.127Z,0
2016-09-26T03:13:32.107Z,0
2016-09-26T03:14:32.084Z,0
2016-09-26T03:15:32.077Z,0
2016-09-26T03:16:32.083Z,0
2016-09-26T03:17:31.743Z,0
2016-09-26T03:18:32.034Z,0
2016-09-26T03:19:32.010Z,0
2016-09-26T03:20:32.004Z,0
2016-09-26T03:21:31.978Z,0
2016-09-26T03:22:31.963Z,0
2016-09-26T03:23:31.946Z,0
2016-09-26T03:24:31.926Z,0
2016-09-26T03:25:31.906Z,0
2016-09-26T03:26:31.896Z,0
2016-09-26T03:27:31.881Z,0
2016-09-26T03:28:31.872Z,0
2016-09-26T03:29:31.851Z,0
2016-09-26T03:30:31.829Z,0
2016-09-26T03:31:31.832Z,0
2016-09-26T03:32:31.801Z,0
2016-09-26T03:33:31.779Z,0
2016-09-26T03:34:31.772Z,0
2016-09-26T03:35:31.762Z,0
2016-09-26T03:36:31.439Z,0
2016-09-26T03:37:31.418Z,0
2016-09-26T03:38:31.709Z,0
2016-09-26T03:39:31.687Z,0
2016-09-26T03:40:31.665Z,0
2016-09-26T03:41:31.346Z,0
2016-09-26T03:42:31.643Z,0
2016-09-26T03:43:31.626Z,0
2016-09-26T03:44:31.305Z,0
2016-09-26T03:45:31.593Z,0
2016-09-26T03:46:31.573Z,0
2016-09-26T03:47:31.558Z,0
2016-09-26T03:48:31.541Z,0
2016-09-26T03:49:31.530Z,0
2016-09-26T03:50:31.505Z,0
2016-09-26T03:51:31.189Z,0
2016-09-26T03:52:31.480Z,0
2016-09-26T03:53:31.467Z,0
2016-09-26T03:54:31.438Z,0
2016-09-26T03:55:31.417Z,0
2016-09-26T03:56:31.414Z,0
2016-09-26T03:57:31.397Z,0
2016-09-26T03:58:31.367Z,0
2016-09-26T03:59:31.374Z,0
2016-09-26T04:00:31.339Z,0
2016-09-26T04:01:31.321Z,0
2016-09-26T04:02:31.303Z,0
2016-09-26T04:03:31.293Z,0
2016-09-26T04:04:30.975Z,0
2016-09-26T04:05:31.267Z,0
2016-09-26T04:06:31.238Z,0
2016-09-26T04:07:31.225Z,0
2016-09-26T04:08:31.217Z,0
2016-09-26T04:09:31.194Z,0
2016-09-26T04:10:31.178Z,0
2016-09-26T04:11:30.557Z,0
2016-09-26T04:12:31.145Z,0
2016-09-26T04:13:31.121Z,0
2016-09-26T04:14:30.814Z,0
2016-09-26T04:15:31.091Z,0
2016-09-26T04:16:30.782Z,0
2016-09-26T04:17:31.049Z,0
2016-09-26T04:18:31.093Z,0
2016-09-26T04:19:31.032Z,0
2016-09-26T04:20:30.716Z,0
2016-09-26T04:21:30.995Z,0
2016-09-26T04:22:30.684Z,0
2016-09-26T04:23:30.969Z,0
2016-09-26T04:24:30.643Z,0
2016-09-26T04:25:30.933Z,0
2016-09-26T04:26:30.918Z,0
2016-09-26T04:27:30.903Z,0
2016-09-26T04:28:30.881Z,0
2016-09-26T04:29:30.864Z,0
2016-09-26T04:30:30.545Z,0
2016-09-26T04:31:30.831Z,0
2016-09-26T04:32:30.818Z,0
2016-09-26T04:33:30.814Z,0
2016-09-26T04:34:30.784Z,0
2016-09-26T04:35:30.770Z,0
2016-09-26T04:36:30.754Z,0
2016-09-26T04:37:30.732Z,0
2016-09-26T04:38:30.711Z,0
2016-09-26T04:39:30.701Z,0
2016-09-26T04:40:30.680Z,0
2016-09-26T04:41:30.663Z,0
2016-09-26T04:42:30.348Z,0
2016-09-26T04:43:30.640Z,0
2016-09-26T04:44:30.635Z,0
2016-09-26T04:45:30.307Z,0
2016-09-26T04:46:30.286Z,0
2016-09-26T04:47:30.275Z,0
2016-09-26T04:48:30.564Z,0
2016-09-26T04:49:30.529Z,0
2016-09-26T04:50:30.518Z,0
2016-09-26T04:51:30.513Z,0
2016-09-26T04:52:30.493Z,0
2016-09-26T04:53:30.470Z,0
2016-09-26T04:54:29.863Z,0
2016-09-26T04:55:30.439Z,0
2016-09-26T04:56:30.419Z,0
2016-09-26T04:57:30.418Z,0
2016-09-26T04:58:30.079Z,0
2016-09-26T04:59:30.371Z,0
2016-09-26T05:00:30.356Z,0
2016-09-26T05:01:30.334Z,0
2016-09-26T05:02:30.319Z,0
2016-09-26T05:03:30.039Z,0
2016-09-26T05:04:30.290Z,0
2016-09-26T05:05:30.276Z,0
2016-09-26T05:06:30.251Z,0
2016-09-26T05:07:30.245Z,0
2016-09-26T05:08:30.223Z,0
2016-09-26T05:09:29.636Z,0
2016-09-26T05:10:30.190Z,0
2016-09-26T05:11:29.874Z,0
2016-09-26T05:12:30.163Z,0
2016-09-26T05:13:30.141Z,0
2016-09-26T05:14:30.120Z,0
2016-09-26T05:15:30.102Z,0
2016-09-26T05:16:30.083Z,0
2016-09-26T05:17:30.078Z,0
2016-09-26T05:18:30.055Z,0
2016-09-26T05:19:30.055Z,0
2016-09-26T05:20:30.035Z,0
2016-09-26T05:21:29.709Z,0
2016-09-26T05:22:29.995Z,0
2016-09-26T05:23:29.978Z,0
2016-09-26T05:24:29.978Z,0
2016-09-26T05:25:29.952Z,0
2016-09-26T05:26:29.922Z,0
2016-09-26T05:27:29.906Z,0
2016-09-26T05:28:29.901Z,0
2016-09-26T05:29:29.873Z,0
2016-09-26T05:30:29.860Z,0
2016-09-26T05:31:29.839Z,0
2016-09-26T05:32:29.833Z,0
2016-09-26T05:33:29.818Z,0
2016-09-26T05:34:29.486Z,0
2016-09-26T05:35:29.775Z,0
2016-09-26T05:36:29.763Z,0
2016-09-26T05:37:29.443Z,0
2016-09-26T05:38:29.437Z,0
2016-09-26T05:39:29.710Z,0
2016-09-26T05:40:29.705Z,0
2016-09-26T05:41:29.682Z,0
2016-09-26T05:42:29.654Z,0
2016-09-26T05:43:29.052Z,0
2016-09-26T05:44:29.622Z,0
2016-09-26T05:45:29.605Z,0
2016-09-26T05:46:29.609Z,0
2016-09-26T05:47:29.587Z,0
2016-09-26T05:48:29.266Z,0
2016-09-26T05:49:29.243Z,0
2016-09-26T05:50:29.531Z,0
2016-09-26T05:51:29.506Z,0
2016-09-26T05:52:29.490Z,0
2016-09-26T05:53:29.485Z,0
2016-09-26T05:54:29.464Z,0
2016-09-26T05:55:29.437Z,0
2016-09-26T05:56:29.437Z,0
2016-09-26T05:57:29.416Z,0
2016-09-26T05:58:29.388Z,0
2016-09-26T05:59:28.779Z,0
2016-09-26T06:00:28.765Z,0
2016-09-26T06:01:29.337Z,0
2016-09-26T06:02:29.030Z,0
2016-09-26T06:03:29.021Z,0
2016-09-26T06:04:29.285Z,0
2016-09-26T06:05:29.289Z,0
2016-09-26T06:06:28.975Z,0
2016-09-26T06:07:28.958Z,0
2016-09-26T06:08:29.233Z,0
2016-09-26T06:09:28.609Z,0
2016-09-26T06:10:28.900Z,0
2016-09-26T06:11:28.879Z,0
2016-09-26T06:12:28.860Z,0
2016-09-26T06:13:28.854Z,0
2016-09-26T06:14:28.839Z,0
2016-09-26T06:15:28.822Z,0
2016-09-26T06:16:28.795Z,0
2016-09-26T06:17:28.780Z,0
2016-09-26T06:18:29.059Z,0
2016-09-26T06:19:29.063Z,0
2016-09-26T06:20:29.040Z,0
2016-09-26T06:21:29.018Z,0
2016-09-26T06:22:28.697Z,0
2016-09-26T06:23:28.988Z,0
2016-09-26T06:24:28.971Z,0
2016-09-26T06:25:28.951Z,0
2016-09-26T06:26:28.633Z,0
2016-09-26T06:27:28.913Z,0
2016-09-26T06:28:28.607Z,0
2016-09-26T06:29:28.608Z,0
2016-09-26T06:30:28.572Z,0
2016-09-26T06:31:28.865Z,0
2016-09-26T06:32:28.539Z,0
2016-09-26T06:33:28.817Z,0
2016-09-26T06:34:28.795Z,0
2016-09-26T06:35:28.482Z,0
2016-09-26T06:36:28.167Z,0
2016-09-26T06:37:28.743Z,0
2016-09-26T06:38:28.744Z,0
2016-09-26T06:39:28.716Z,0
2016-09-26T06:40:28.404Z,0
2016-09-26T06:41:28.703Z,0
2016-09-26T06:42:28.366Z,0
2016-09-26T06:43:28.042Z,0
2016-09-26T06:44:28.329Z,4
2016-09-26T06:45:28.536Z,4
2016-09-26T06:46:28.611Z,4
2016-09-26T06:47:28.581Z,4
2016-09-26T06:48:28.566Z,4
2016-09-26T06:49:28.242Z,0
2016-09-26T06:50:28.529Z,0
2016-09-26T06:51:28.532Z,0
2016-09-26T06:52:28.500Z,4
2016-09-26T06:53:28.482Z,4
2016-09-26T06:54:28.470Z,4
2016-09-26T06:55:28.487Z,4
2016-09-26T06:56:28.436Z,4
2016-09-26T06:57:28.117Z,4
2016-09-26T06:58:28.103Z,4
2016-09-26T06:59:28.080Z,8
2016-09-26T07:00:28.078Z,4
2016-09-26T07:01:28.346Z,8
2016-09-26T07:02:28.028Z,8
2016-09-26T07:03:28.328Z,8
2016-09-26T07:04:28.293Z,8
2016-09-26T07:05:27.991Z,8
2016-09-26T07:06:28.272Z,12
2016-09-26T07:07:28.246Z,8
2016-09-26T07:08:27.935Z,12
2016-09-26T07:09:27.625Z,12
2016-09-26T07:10:27.909Z,12
2016-09-26T07:11:27.883Z,12
2016-09-26T07:12:28.172Z,12
2016-09-26T07:13:27.548Z,12
2016-09-26T07:14:27.831Z,12
2016-09-26T07:15:27.811Z,12
2016-09-26T07:16:27.797Z,12
2016-09-26T07:17:27.782Z,12
2016-09-26T07:18:28.069Z,12
2016-09-26T07:19:27.753Z,12
2016-09-26T07:20:27.432Z,12
2016-09-26T07:21:28.015Z,12
2016-09-26T07:22:27.718Z,12
2016-09-26T07:23:27.984Z,12
2016-09-26T07:24:27.966Z,12
2016-09-26T07:25:27.652Z,12
2016-09-26T07:26:27.938Z,12
2016-09-26T07:27:27.624Z,12
2016-09-26T07:28:27.303Z,12
2016-09-26T07:29:27.887Z,12
2016-09-26T07:30:27.865Z,12
2016-09-26T07:31:27.551Z,12
2016-09-26T07:32:27.834Z,12
2016-09-26T07:33:27.824Z,12
2016-09-26T07:34:27.799Z,12
2016-09-26T07:35:27.173Z,12
2016-09-26T07:36:27.165Z,12
2016-09-26T07:37:27.463Z,12
2016-09-26T07:38:27.731Z,12
2016-09-26T07:39:27.419Z,12
2016-09-26T07:40:27.706Z,12
2016-09-26T07:41:27.382Z,12
2016-09-26T07:42:27.069Z,12
2016-09-26T07:43:27.650Z,16
2016-09-26T07:44:27.334Z,16
2016-09-26T07:45:27.616Z,16
2016-09-26T07:46:27.597Z,16
2016-09-26T07:47:27.605Z,16
2016-09-26T07:48:27.568Z,16
2016-09-26T07:49:27.549Z,16
2016-09-26T07:50:27.536Z,16
2016-09-26T07:51:27.515Z,16
2016-09-26T07:52:27.209Z,16
2016-09-26T07:53:27.481Z,16
2016-09-26T07:54:27.471Z,16
2016-09-26T07:55:27.453Z,16
2016-09-26T07:56:27.438Z,16
2016-09-26T07:57:27.411Z,16
2016-09-26T07:58:27.406Z,16
2016-09-26T07:59:27.387Z,16
2016-09-26T08:00:27.073Z,16
2016-09-26T08:01:27.355Z,16
2016-09-26T08:02:27.329Z,16
2016-09-26T08:03:26.426Z,16
2016-09-26T08:04:27.013Z,12
2016-09-26T08:05:26.992Z,12
2016-09-26T08:06:27.269Z,16
2016-09-26T08:07:26.962Z,16
2016-09-26T08:08:27.240Z,16
2016-09-26T08:09:27.213Z,16
2016-09-26T08:10:27.209Z,12
2016-09-26T08:11:26.891Z,16
2016-09-26T08:12:26.875Z,12
2016-09-26T08:13:27.154Z,12
2016-09-26T08:14:26.831Z,12
2016-09-26T08:15:26.819Z,12
2016-09-26T08:16:27.130Z,12
2016-09-26T08:17:27.098Z,12
2016-09-26T08:18:27.066Z,12
2016-09-26T08:19:27.064Z,12
2016-09-26T08:20:26.422Z,12
2016-09-26T08:21:27.029Z,12
2016-09-26T08:22:26.999Z,12
2016-09-26T08:23:26.690Z,0
2016-09-26T08:24:26.965Z,0
2016-09-26T08:25:26.952Z,0
2016-09-26T08:26:26.638Z,0
2016-09-26T08:27:26.923Z,0
2016-09-26T08:28:25.998Z,0
2016-09-26T08:29:26.888Z,0
2016-09-26T08:30:26.867Z,0
2016-09-26T08:31:26.853Z,0
2016-09-26T08:32:26.846Z,0
2016-09-26T08:33:26.522Z,0
2016-09-26T08:34:26.805Z,0
2016-09-26T08:35:26.785Z,0
2016-09-26T08:36:26.767Z,0
2016-09-26T08:37:26.155Z,0
2016-09-26T08:38:26.450Z,0
2016-09-26T08:39:26.714Z,0
2016-09-26T08:40:26.400Z,0
2016-09-26T08:41:26.694Z,0
2016-09-26T08:42:26.392Z,0
2016-09-26T08:43:26.360Z,0
2016-09-26T08:44:26.635Z,4
2016-09-26T08:45:26.327Z,0
2016-09-26T08:46:26.613Z,0
2016-09-26T08:47:25.979Z,0
2016-09-26T08:48:26.571Z,0
2016-09-26T08:49:26.265Z,0
2016-09-26T08:50:26.247Z,0
2016-09-26T08:51:26.223Z,0
2016-09-26T08:52:26.511Z,0
2016-09-26T08:53:26.489Z,0
2016-09-26T08:54:26.179Z,0
2016-09-26T08:55:26.159Z,0
2016-09-26T08:56:26.141Z,0
2016-09-26T08:57:26.124Z,0
2016-09-26T08:58:26.400Z,0
2016-09-26T08:59:26.393Z,0
2016-09-26T09:00:26.372Z,0
2016-09-26T09:01:26.046Z,0
2016-09-26T09:02:26.343Z,0
2016-09-26T09:03:26.028Z,0
2016-09-26T09:04:26.356Z,0
2016-09-26T09:05:25.996Z,0
2016-09-26T09:06:26.276Z,0
2016-09-26T09:07:26.259Z,0
2016-09-26T09:08:26.244Z,0
2016-09-26T09:09:25.629Z,0
2016-09-26T09:10:26.209Z,0
2016-09-26T09:11:26.200Z,0
2016-09-26T09:12:26.181Z,0
2016-09-26T09:13:25.862Z,0
2016-09-26T09:14:25.853Z,0
2016-09-26T09:15:26.146Z,0
2016-09-26T09:16:26.116Z,0
2016-09-26T09:17:26.099Z,0
2016-09-26T09:18:26.079Z,0
2016-09-26T09:19:25.755Z,0
2016-09-26T09:20:26.042Z,0
2016-09-26T09:21:26.019Z,0
2016-09-26T09:22:25.713Z,0
2016-09-26T09:23:25.389Z,0
2016-09-26T09:24:25.679Z,0
2016-09-26T09:25:25.958Z,0
2016-09-26T09:26:25.949Z,0
2016-09-26T09:27:25.931Z,0
2016-09-26T09:28:25.914Z,4
2016-09-26T09:29:25.593Z,4
2016-09-26T09:30:25.590Z,4
2016-09-26T09:31:25.869Z,4
2016-09-26T09:32:25.853Z,4
2016-09-26T09:33:25.533Z,4
2016-09-26T09:34:25.819Z,4
2016-09-26T09:35:25.503Z,0
2016-09-26T09:36:25.779Z,0
2016-09-26T09:37:25.771Z,4
2016-09-26T09:38:25.772Z,4
2016-09-26T09:39:25.747Z,4
2016-09-26T09:40:25.720Z,0
2016-09-26T09:41:25.709Z,4
2016-09-26T09:42:25.403Z,4
2016-09-26T09:43:25.684Z,4
2016-09-26T09:44:25.653Z,4
2016-09-26T09:45:25.643Z,4
2016-09-26T09:46:25.326Z,8
2016-09-26T09:47:25.620Z,4
2016-09-26T09:48:24.992Z,4
2016-09-26T09:49:25.581Z,4
2016-09-26T09:50:25.555Z,4
2016-09-26T09:51:25.535Z,4
2016-09-26T09:52:25.543Z,4
2016-09-26T09:53:25.200Z,4
2016-09-26T09:54:25.216Z,4
2016-09-26T09:55:25.478Z,4
2016-09-26T09:56:25.175Z,4
2016-09-26T09:57:25.449Z,4
2016-09-26T09:58:25.431Z,0
2016-09-26T09:59:25.111Z,0
2016-09-26T10:00:25.098Z,0
2016-09-26T10:01:25.079Z,0
2016-09-26T10:02:24.777Z,0
2016-09-26T10:03:25.040Z,4
2016-09-26T10:04:24.726Z,4
2016-09-26T10:05:25.319Z,4
2016-09-26T10:06:25.296Z,4
2016-09-26T10:07:25.282Z,4
2016-09-26T10:08:25.266Z,4
2016-09-26T10:09:25.250Z,4
2016-09-26T10:10:25.230Z,4
2016-09-26T10:11:24.926Z,4
2016-09-26T10:12:24.901Z,4
2016-09-26T10:13:25.172Z,4
2016-09-26T10:14:25.172Z,4
2016-09-26T10:15:24.544Z,4
2016-09-26T10:16:24.830Z,8
2016-09-26T10:17:25.117Z,8
2016-09-26T10:18:25.096Z,8
2016-09-26T10:19:24.782Z,8
2016-09-26T10:20:25.068Z,8
2016-09-26T10:21:24.750Z,4
2016-09-26T10:22:25.044Z,4
2016-09-26T10:23:24.730Z,4
2016-09-26T10:24:24.999Z,0
2016-09-26T10:25:24.688Z,8
2016-09-26T10:26:24.974Z,4
2016-09-26T10:27:24.955Z,4
2016-09-26T10:28:24.336Z,4
2016-09-26T10:29:24.923Z,4
2016-09-26T10:30:24.905Z,4
2016-09-26T10:31:24.888Z,4
2016-09-26T10:32:24.572Z,4
2016-09-26T10:33:24.890Z,8
2016-09-26T10:34:24.841Z,8
2016-09-26T10:35:24.837Z,8
2016-09-26T10:36:24.808Z,8
2016-09-26T10:37:24.498Z,0
2016-09-26T10:38:24.476Z,4
2016-09-26T10:39:24.456Z,4
2016-09-26T10:40:24.743Z,4
2016-09-26T10:41:24.730Z,4
2016-09-26T10:42:24.411Z,0
2016-09-26T10:43:24.704Z,4
2016-09-26T10:44:24.673Z,4
2016-09-26T10:45:24.674Z,4
2016-09-26T10:46:23.748Z,4
2016-09-26T10:47:24.339Z,8
2016-09-26T10:48:24.317Z,4
2016-09-26T10:49:24.295Z,8
2016-09-26T10:50:24.284Z,4
2016-09-26T10:51:24.287Z,4
2016-09-26T10:52:24.255Z,4
2016-09-26T10:53:24.537Z,4
2016-09-26T10:54:24.227Z,4
2016-09-26T10:55:24.192Z,4
2016-09-26T10:56:24.482Z,4
2016-09-26T10:57:24.465Z,4
2016-09-26T10:58:24.147Z,4
2016-09-26T10:59:24.137Z,4
2016-09-26T11:00:24.416Z,4
2016-09-26T11:01:24.401Z,4
2016-09-26T11:02:24.399Z,4
2016-09-26T11:03:24.363Z,4
2016-09-26T11:04:24.058Z,4
2016-09-26T11:05:24.330Z,4
2016-09-26T11:06:24.328Z,4
2016-09-26T11:07:24.320Z,0
2016-09-26T11:08:23.973Z,0
2016-09-26T11:09:23.670Z,4
2016-09-26T11:10:23.953Z,4
2016-09-26T11:11:24.238Z,4
2016-09-26T11:12:24.223Z,4
2016-09-26T11:13:23.602Z,4
2016-09-26T11:14:24.192Z,4
2016-09-26T11:15:24.177Z,4
2016-09-26T11:16:23.563Z,4
2016-09-26T11:17:24.131Z,4
2016-09-26T11:18:23.520Z,4
2016-09-26T11:19:23.822Z,4
2016-09-26T11:20:23.781Z,4
2016-09-26T11:21:23.761Z,4
2016-09-26T11:22:23.754Z,4
2016-09-26T11:23:23.741Z,4
2016-09-26T11:24:23.774Z,4
2016-09-26T11:25:23.708Z,4
2016-09-26T11:26:23.998Z,4
2016-09-26T11:27:23.990Z,4
2016-09-26T11:28:23.964Z,8
2016-09-26T11:29:23.938Z,4
2016-09-26T11:30:23.314Z,4
2016-09-26T11:31:23.907Z,4
2016-09-26T11:32:23.587Z,4
2016-09-26T11:33:23.871Z,8
2016-09-26T11:34:23.848Z,8
2016-09-26T11:35:23.844Z,4
2016-09-26T11:36:23.826Z,8
2016-09-26T11:37:23.804Z,4
2016-09-26T11:38:23.496Z,4
2016-09-26T11:39:23.775Z,4
2016-09-26T11:40:23.152Z,4
2016-09-26T11:41:23.737Z,4
2016-09-26T11:42:23.728Z,4
2016-09-26T11:43:23.703Z,4
2016-09-26T11:44:23.686Z,8
2016-09-26T11:45:23.368Z,4
2016-09-26T11:46:23.651Z,4
2016-09-26T11:47:23.632Z,4
2016-09-26T11:48:23.317Z,4
2016-09-26T11:49:23.322Z,8
2016-09-26T11:50:23.584Z,8
2016-09-26T11:51:23.264Z,8
2016-09-26T11:52:23.259Z,8
2016-09-26T11:53:23.534Z,8
2016-09-26T11:54:23.517Z,4
2016-09-26T11:55:23.501Z,4
2016-09-26T11:56:23.486Z,4
2016-09-26T11:57:23.470Z,4
2016-09-26T11:58:23.157Z,4
2016-09-26T11:59:23.136Z,4
2016-09-26T12:00:23.422Z,4
2016-09-26T12:01:23.413Z,4
2016-09-26T12:02:23.394Z,4
2016-09-26T12:03:23.097Z,4
2016-09-26T12:04:23.357Z,4
2016-09-26T12:05:23.040Z,4
2016-09-26T12:06:23.025Z,4
2016-09-26T12:07:23.310Z,4
2016-09-26T12:08:22.985Z,4
2016-09-26T12:09:23.279Z,4
2016-09-26T12:10:23.264Z,4
2016-09-26T12:11:22.951Z,4
2016-09-26T12:12:23.224Z,4
2016-09-26T12:13:22.905Z,4
2016-09-26T12:14:23.195Z,4
2016-09-26T12:15:23.174Z,8
2016-09-26T12:16:23.176Z,4
2016-09-26T12:17:23.140Z,8
2016-09-26T12:18:23.135Z,4
2016-09-26T12:19:22.808Z,4
2016-09-26T12:20:22.797Z,4
2016-09-26T12:21:22.788Z,4
2016-09-26T12:22:23.071Z,4
2016-09-26T12:23:22.740Z,4
2016-09-26T12:24:23.048Z,4
2016-09-26T12:25:22.710Z,4
2016-09-26T12:26:23.002Z,8
2016-09-26T12:27:22.979Z,8
2016-09-26T12:28:22.977Z,4
2016-09-26T12:29:22.656Z,8
2016-09-26T12:30:22.646Z,4
2016-09-26T12:31:22.621Z,4
2016-09-26T12:32:22.599Z,4
2016-09-26T12:33:22.596Z,8
2016-09-26T12:34:22.571Z,4
2016-09-26T12:35:22.871Z,8
2016-09-26T12:36:22.849Z,8
2016-09-26T12:37:22.527Z,8
2016-09-26T12:38:22.513Z,4
2016-09-26T12:39:22.790Z,4
2016-09-26T12:40:22.466Z,8
2016-09-26T12:41:22.451Z,8
2016-09-26T12:42:22.444Z,12
2016-09-26T12:43:22.728Z,8
2016-09-26T12:44:22.716Z,8
2016-09-26T12:45:22.405Z,8
2016-09-26T12:46:22.677Z,8
2016-09-26T12:47:22.661Z,8
2016-09-26T12:48:22.657Z,12
2016-09-26T12:49:22.621Z,12
2016-09-26T12:50:22.609Z,16
2016-09-26T12:51:22.595Z,12
2016-09-26T12:52:22.580Z,16
2016-09-26T12:53:22.563Z,8
2016-09-26T12:54:22.249Z,8
2016-09-26T12:55:22.531Z,4
2016-09-26T12:56:22.211Z,8
2016-09-26T12:57:22.205Z,8
2016-09-26T12:58:22.477Z,8
2016-09-26T12:59:22.170Z,4
2016-09-26T13:00:22.451Z,4
2016-09-26T13:01:22.431Z,8
2016-09-26T13:02:22.418Z,4
2016-09-26T13:03:22.404Z,4
2016-09-26T13:04:22.084Z,8
2016-09-26T13:05:22.365Z,4
2016-09-26T13:06:22.351Z,4
2016-09-26T13:07:22.640Z,4
2016-09-26T13:08:22.341Z,4
2016-09-26T13:09:22.000Z,4
2016-09-26T13:10:21.381Z,8
2016-09-26T13:11:22.271Z,4
2016-09-26T13:12:22.251Z,4
2016-09-26T13:13:21.930Z,4
2016-09-26T13:14:21.919Z,4
2016-09-26T13:15:22.203Z,8
2016-09-26T13:16:22.192Z,12
2016-09-26T13:17:21.567Z,12
2016-09-26T13:18:22.153Z,44
2016-09-26T13:19:21.835Z,44
2016-09-26T13:20:22.140Z,48
2016-09-26T13:21:21.808Z,52
2016-09-26T13:22:22.093Z,20
2016-09-26T13:23:22.069Z,8
2016-09-26T13:24:22.008Z,4
2016-09-26T13:25:22.039Z,4
2016-09-26T13:26:22.019Z,0
2016-09-26T13:27:22.016Z,4
2016-09-26T13:28:21.979Z,4
2016-09-26T13:29:21.377Z,0
2016-09-26T13:30:21.971Z,0
2016-09-26T13:31:21.640Z,4
2016-09-26T13:32:21.622Z,4
2016-09-26T13:33:21.613Z,4
2016-09-26T13:34:21.287Z,4
2016-09-26T13:35:21.577Z,4
2016-09-26T13:36:21.863Z,4
2016-09-26T13:37:21.840Z,4
2016-09-26T13:38:21.837Z,4
2016-09-26T13:39:21.820Z,4
2016-09-26T13:40:21.812Z,4
2016-09-26T13:41:21.484Z,4
2016-09-26T13:42:21.764Z,8
2016-09-26T13:43:21.745Z,24
2016-09-26T13:44:21.724Z,24
2016-09-26T13:45:21.710Z,56
2016-09-26T13:46:21.400Z,4
2016-09-26T13:47:21.379Z,4
2016-09-26T13:48:21.357Z,4
2016-09-26T13:49:21.356Z,4
2016-09-26T13:50:21.663Z,4
2016-09-26T13:51:21.623Z,4
2016-09-26T13:52:21.607Z,4
2016-09-26T13:53:21.589Z,4
2016-09-26T13:54:21.573Z,4
2016-09-26T13:55:21.555Z,16
2016-09-26T13:56:21.537Z,8
2016-09-26T13:57:21.517Z,4
2016-09-26T13:58:21.509Z,8
2016-09-26T13:59:21.182Z,4
2016-09-26T14:00:21.490Z,4
2016-09-26T14:01:21.160Z,4
2016-09-26T14:02:21.434Z,4
2016-09-26T14:03:21.121Z,4
2016-09-26T14:04:21.110Z,4
2016-09-26T14:05:21.400Z,4
2016-09-26T14:06:21.380Z,8
2016-09-26T14:07:21.358Z,4
2016-09-26T14:08:21.335Z,8
2016-09-26T14:09:21.045Z,8
2016-09-26T14:10:21.008Z,4
2016-09-26T14:11:20.988Z,8
2016-09-26T14:12:20.677Z,4
2016-09-26T14:13:20.955Z,4
2016-09-26T14:14:21.250Z,4
2016-09-26T14:15:20.926Z,8
2016-09-26T14:16:21.219Z,4
2016-09-26T14:17:21.189Z,4
2016-09-26T14:18:20.863Z,4
2016-09-26T14:19:20.885Z,32
2016-09-26T14:20:20.542Z,8
2016-09-26T14:21:21.126Z,8
2016-09-26T14:22:20.825Z,8
2016-09-26T14:23:21.101Z,12
2016-09-26T14:24:20.790Z,8
2016-09-26T14:25:21.063Z,8
2016-09-26T14:26:21.049Z,8
2016-09-26T14:27:21.045Z,0
2016-09-26T14:28:20.717Z,4
2016-09-26T14:29:20.709Z,4
2016-09-26T14:30:20.683Z,4
2016-09-26T14:31:20.777Z,4
2016-09-26T14:32:20.949Z,0
2016-09-26T14:33:20.641Z,0
2016-09-26T14:34:20.918Z,0
2016-09-26T14:35:20.900Z,0
2016-09-26T14:36:20.897Z,0
2016-09-26T14:37:20.879Z,4
2016-09-26T14:38:20.844Z,0
2016-09-26T14:39:20.841Z,4
2016-09-26T14:40:20.222Z,4
2016-09-26T14:41:20.509Z,4
2016-09-26T14:42:20.215Z,4
2016-09-26T14:43:20.782Z,4